createdAt,value
2022-10-05T00:01:35.329Z,78.41
2022-10-05T00:04:15.436Z,80.22
2022-10-05T00:06:47.063Z,80.70
2022-10-05T00:09:20.943Z,79.48
2022-10-05T00:11:53.000Z,77.24
2022-10-05T00:14:23.660Z,76.80
2022-10-05T00:16:53.046Z,78.05
2022-10-05T00:19:25.101Z,76.78
2022-10-05T00:21:54.590Z,78.35
2022-10-05T00:24:24.175Z,77.54
2022-10-05T00:26:57.987Z,78.35
2022-10-05T00:29:27.881Z,77.60
2022-10-05T00:31:57.100Z,80.39
2022-10-05T00:34:26.626Z,81.73
2022-10-05T00:36:56.085Z,79.04
2022-10-05T00:39:30.020Z,78.50
2022-10-05T00:42:25.384Z,80.11
2022-10-05T00:44:57.939Z,81.32
2022-10-05T00:47:38.131Z,81.59
2022-10-05T00:50:29.415Z,79.06
2022-10-05T00:53:07.558Z,81.46
2022-10-05T00:55:48.197Z,80.71
2022-10-05T00:58:26.271Z,79.97
2022-10-05T01:01:03.496Z,81.00
2022-10-05T01:03:38.346Z,80.18
2022-10-05T01:06:14.434Z,79.77
2022-10-05T01:08:51.493Z,79.61
2022-10-05T01:11:29.569Z,79.37
2022-10-05T01:14:09.183Z,78.76
2022-10-05T01:16:45.996Z,79.52
2022-10-05T01:19:28.196Z,79.02
2022-10-05T01:22:05.640Z,77.08
2022-10-05T01:24:50.353Z,76.63
2022-10-05T01:27:46.438Z,78.48
2022-10-05T01:30:20.299Z,80.28
2022-10-05T01:32:52.796Z,77.44
2022-10-05T01:35:31.866Z,79.73
2022-10-05T01:38:09.370Z,77.01
2022-10-05T01:40:46.183Z,75.08
2022-10-05T01:43:21.737Z,74.56
2022-10-05T01:46:00.033Z,74.98
2022-10-05T01:48:38.875Z,74.94
2022-10-05T01:51:13.342Z,75.86
2022-10-05T01:53:51.260Z,75.34
2022-10-05T01:56:30.872Z,77.96
2022-10-05T01:59:16.542Z,78.86
2022-10-05T02:01:51.739Z,79.23
2022-10-05T02:04:43.624Z,79.18
2022-10-05T02:07:23.699Z,77.58
2022-10-05T02:10:00.403Z,76.23
2022-10-05T02:12:32.686Z,78.56
2022-10-05T02:15:11.143Z,76.66
2022-10-05T02:17:44.398Z,77.97
2022-10-05T02:20:19.285Z,78.01
2022-10-05T02:22:52.762Z,77.21
2022-10-05T02:25:24.767Z,78.39
2022-10-05T02:27:56.464Z,80.02
2022-10-05T02:30:27.770Z,76.74
2022-10-05T02:33:02.054Z,75.55
2022-10-05T02:35:33.402Z,74.26
2022-10-05T02:38:12.735Z,78.89
2022-10-05T02:40:56.284Z,77.94
2022-10-05T02:43:32.260Z,78.73
2022-10-05T02:46:08.796Z,76.97
2022-10-05T02:48:44.201Z,78.01
2022-10-05T02:51:19.778Z,77.26
2022-10-05T02:54:01.774Z,79.64
2022-10-05T02:56:36.446Z,79.08
2022-10-05T02:59:10.468Z,76.09
2022-10-05T03:01:45.545Z,76.13
2022-10-05T03:04:22.699Z,75.34
2022-10-05T03:07:00.415Z,76.54
2022-10-05T03:09:33.357Z,78.63
2022-10-05T03:12:24.915Z,76.88
2022-10-05T03:15:08.448Z,75.38
2022-10-05T03:17:46.416Z,77.81
2022-10-05T03:20:23.398Z,77.03
2022-10-05T03:22:56.928Z,78.85
2022-10-05T03:25:53.285Z,75.27
2022-10-05T03:28:29.256Z,74.99
2022-10-05T03:31:02.178Z,75.85
2022-10-05T03:33:40.828Z,74.22
2022-10-05T03:36:19.822Z,74.42
2022-10-05T03:39:01.935Z,73.56
2022-10-05T03:41:37.189Z,75.25
2022-10-05T03:44:19.473Z,75.02
2022-10-05T03:47:04.288Z,75.22
2022-10-05T03:49:47.556Z,76.93
2022-10-05T03:52:23.338Z,75.99
2022-10-05T03:54:56.299Z,74.29
2022-10-05T03:57:27.369Z,71.96
2022-10-05T04:00:02.686Z,73.71
2022-10-05T04:02:36.920Z,73.25
2022-10-05T04:05:16.549Z,72.97
2022-10-05T04:07:49.449Z,76.76
2022-10-05T04:10:22.879Z,76.73
2022-10-05T04:12:56.037Z,79.93
2022-10-05T04:15:31.246Z,75.66
2022-10-05T04:18:05.288Z,77.45
2022-10-05T04:20:43.375Z,75.79
2022-10-05T04:23:18.741Z,74.54
2022-10-05T04:25:52.105Z,73.64
2022-10-05T04:28:31.174Z,74.57
2022-10-05T04:31:02.742Z,73.86
2022-10-05T04:33:34.245Z,75.67
2022-10-05T04:36:22.614Z,75.17
2022-10-05T04:39:04.579Z,77.97
2022-10-05T04:41:53.539Z,75.46
2022-10-05T04:44:37.402Z,75.00
2022-10-05T04:47:19.465Z,75.79
2022-10-05T04:50:10.514Z,78.84
2022-10-05T04:52:48.943Z,74.55
2022-10-05T04:55:26.783Z,74.88
2022-10-05T04:58:02.409Z,79.76
2022-10-05T05:00:38.211Z,77.60
2022-10-05T05:03:23.832Z,75.19
2022-10-05T05:06:16.391Z,76.00
2022-10-05T05:09:13.652Z,75.18
2022-10-05T05:11:50.572Z,75.91
2022-10-05T05:14:47.270Z,77.49
2022-10-05T05:17:28.141Z,74.01
2022-10-05T05:20:08.677Z,76.64
2022-10-05T05:22:50.430Z,79.48
2022-10-05T05:25:59.003Z,74.68
2022-10-05T05:29:44.920Z,76.31
2022-10-05T05:36:30.571Z,74.71
2022-10-05T05:42:25.274Z,75.27
2022-10-05T05:44:56.795Z,78.15
2022-10-05T05:47:35.353Z,79.34
2022-10-05T05:50:28.338Z,77.43
2022-10-05T05:53:12.467Z,76.16
2022-10-05T05:55:46.628Z,75.62
2022-10-05T05:58:29.321Z,74.87
2022-10-05T06:01:01.198Z,74.71
2022-10-05T06:03:35.912Z,77.99
2022-10-05T06:06:08.185Z,76.15
2022-10-05T06:08:50.505Z,76.08
2022-10-05T06:11:24.881Z,77.33
2022-10-05T06:13:56.902Z,75.69
2022-10-05T06:16:33.384Z,77.32
2022-10-05T06:19:11.252Z,77.20
2022-10-05T06:21:44.984Z,77.33
2022-10-05T06:24:19.054Z,76.34
2022-10-05T06:27:25.023Z,77.55
2022-10-05T06:30:15.285Z,77.05
2022-10-05T06:33:04.290Z,82.66
2022-10-05T06:35:43.367Z,82.64
2022-10-05T06:38:38.890Z,82.13
2022-10-05T06:41:20.113Z,77.14
2022-10-05T06:43:56.570Z,78.17
2022-10-05T06:46:33.276Z,81.46
2022-10-05T06:49:18.132Z,84.73
2022-10-05T06:51:54.714Z,82.62
2022-10-05T06:54:47.321Z,82.55
2022-10-05T06:57:33.759Z,83.77
2022-10-05T07:00:05.583Z,82.93
2022-10-05T07:02:40.444Z,83.93
2022-10-05T07:05:41.175Z,82.91
2022-10-05T07:08:13.512Z,84.57
2022-10-05T07:10:53.119Z,81.30
2022-10-05T07:13:46.368Z,82.46
2022-10-05T07:16:22.422Z,80.37
2022-10-05T07:19:00.651Z,81.83
2022-10-05T07:21:35.784Z,81.74
2022-10-05T07:24:11.570Z,85.87
2022-10-05T07:26:45.417Z,82.15
2022-10-05T07:29:23.655Z,79.85
2022-10-05T07:32:02.785Z,82.31
2022-10-05T07:34:42.524Z,81.20
2022-10-05T07:37:32.677Z,80.16
2022-10-05T07:40:10.421Z,83.63
2022-10-05T07:42:51.867Z,80.60
2022-10-05T07:45:29.804Z,79.63
2022-10-05T07:48:00.818Z,79.74
2022-10-05T07:50:36.916Z,78.02
2022-10-05T07:53:12.783Z,78.57
2022-10-05T07:55:45.316Z,78.45
2022-10-05T07:58:21.231Z,77.79
2022-10-05T08:01:06.631Z,78.60
2022-10-05T08:03:44.910Z,79.51
2022-10-05T08:06:28.188Z,78.77
2022-10-05T08:09:01.461Z,81.10
2022-10-05T08:11:35.161Z,78.55
2022-10-05T08:14:10.576Z,78.63
2022-10-05T08:16:41.257Z,79.56
2022-10-05T08:19:18.574Z,78.66
2022-10-05T08:21:52.951Z,80.70
2022-10-05T08:24:35.574Z,80.73
2022-10-05T08:27:07.788Z,82.21
2022-10-05T08:29:40.690Z,80.36
2022-10-05T08:32:15.863Z,81.58
2022-10-05T08:34:51.359Z,78.77
2022-10-05T08:37:24.954Z,79.76
2022-10-05T08:39:57.983Z,78.03
2022-10-05T08:42:51.531Z,79.31
2022-10-05T08:45:50.763Z,77.27
2022-10-05T08:48:50.287Z,79.15
2022-10-05T08:51:50.053Z,77.72
2022-10-05T08:54:42.214Z,77.67
2022-10-05T08:57:48.230Z,76.43
2022-10-05T09:00:20.373Z,77.86
2022-10-05T09:03:06.768Z,78.35
2022-10-05T09:06:05.511Z,76.56
2022-10-05T09:08:51.501Z,77.50
2022-10-05T09:11:28.117Z,74.38
2022-10-05T09:14:12.032Z,79.16
2022-10-05T09:16:55.788Z,77.80
2022-10-05T09:20:01.305Z,75.93
2022-10-05T09:22:38.444Z,74.48
2022-10-05T09:25:19.777Z,74.58
2022-10-05T09:27:56.981Z,77.22
2022-10-05T09:30:47.015Z,76.15
2022-10-05T09:33:53.220Z,76.36
2022-10-05T09:36:51.514Z,75.84
2022-10-05T09:39:32.401Z,75.96
2022-10-05T09:42:28.934Z,75.89
2022-10-05T09:45:36.878Z,70.05
2022-10-05T09:48:55.315Z,68.39
2022-10-05T09:51:55.140Z,72.38
2022-10-05T09:55:01.875Z,68.91
2022-10-05T09:58:03.939Z,69.66
2022-10-05T10:00:51.491Z,70.12
2022-10-05T10:04:13.741Z,67.40
2022-10-05T10:07:07.488Z,65.78
2022-10-05T10:09:41.574Z,65.45
2022-10-05T10:12:28.477Z,66.10
2022-10-05T10:15:33.118Z,65.31
2022-10-05T10:18:37.608Z,65.98
2022-10-05T10:21:25.156Z,64.76
2022-10-05T10:24:28.755Z,61.60
2022-10-05T10:27:11.482Z,64.73
2022-10-05T10:30:13.266Z,62.57
2022-10-05T10:33:17.909Z,61.34
2022-10-05T10:35:52.372Z,59.13
2022-10-05T10:38:34.029Z,56.46
2022-10-05T10:41:31.945Z,59.63
2022-10-05T10:44:25.285Z,59.86
2022-10-05T10:47:07.320Z,57.83
2022-10-05T10:49:47.835Z,58.14
2022-10-05T10:52:27.870Z,61.02
2022-10-05T10:55:28.934Z,56.67
2022-10-05T10:58:33.469Z,56.16
2022-10-05T11:01:15.325Z,55.25
2022-10-05T11:04:13.927Z,53.62
2022-10-05T11:07:19.559Z,55.31
2022-10-05T11:10:13.424Z,54.04
2022-10-05T11:13:14.266Z,50.45
2022-10-05T11:16:15.949Z,52.75
2022-10-05T11:19:05.388Z,51.54
2022-10-05T11:21:39.215Z,51.63
2022-10-05T11:24:44.613Z,50.41
2022-10-05T11:27:36.286Z,51.03
2022-10-05T11:30:31.607Z,46.83
2022-10-05T11:33:31.319Z,49.01
2022-10-05T11:36:16.569Z,49.06
2022-10-05T11:39:13.041Z,47.71
2022-10-05T11:42:25.542Z,47.46
2022-10-05T11:45:17.619Z,46.48
2022-10-05T11:48:16.914Z,46.12
2022-10-05T11:50:55.862Z,47.50
2022-10-05T11:53:28.683Z,48.70
2022-10-05T11:56:06.559Z,44.28
2022-10-05T11:58:38.477Z,45.71
2022-10-05T12:01:17.168Z,45.45
2022-10-05T12:03:57.204Z,46.67
2022-10-05T12:06:42.307Z,46.44
2022-10-05T12:09:32.604Z,46.84
2022-10-05T12:12:11.410Z,46.79
2022-10-05T12:14:49.459Z,46.65
2022-10-05T12:17:24.447Z,49.90
2022-10-05T12:19:58.207Z,49.09
2022-10-05T12:22:33.431Z,48.09
2022-10-05T12:25:21.733Z,49.45
2022-10-05T12:27:53.976Z,46.86
2022-10-05T12:30:30.747Z,47.32
2022-10-05T12:33:03.866Z,47.79
2022-10-05T12:35:53.772Z,48.21
2022-10-05T12:38:28.627Z,48.87
2022-10-05T12:41:05.754Z,50.47
2022-10-05T12:43:43.217Z,50.63
2022-10-05T12:46:19.301Z,49.39
2022-10-05T12:48:59.232Z,50.24
2022-10-05T12:51:36.890Z,50.17
2022-10-05T12:54:16.238Z,48.57
2022-10-05T12:56:48.872Z,51.11
2022-10-05T12:59:28.628Z,50.22
2022-10-05T13:02:06.374Z,48.99
2022-10-05T13:04:42.916Z,49.30
2022-10-05T13:07:23.962Z,51.14
2022-10-05T13:10:01.375Z,48.82
2022-10-05T13:12:36.697Z,47.29
2022-10-05T13:15:11.785Z,48.80
2022-10-05T13:17:45.752Z,48.04
2022-10-05T13:20:22.224Z,49.29
2022-10-05T13:22:57.713Z,47.51
2022-10-05T13:25:32.622Z,49.10
2022-10-05T13:28:16.564Z,49.71
2022-10-05T13:30:53.708Z,53.89
2022-10-05T13:33:28.784Z,54.29
2022-10-05T13:36:16.859Z,52.73
2022-10-05T13:38:54.752Z,54.29
2022-10-05T13:41:36.826Z,54.75
2022-10-05T13:44:16.180Z,53.28
2022-10-05T13:46:51.322Z,54.03
2022-10-05T13:49:29.438Z,53.77
2022-10-05T13:52:02.652Z,53.44
2022-10-05T13:54:41.555Z,54.29
2022-10-05T13:57:21.257Z,56.93
2022-10-05T13:59:55.341Z,54.64
2022-10-05T14:02:30.421Z,58.48
2022-10-05T14:05:04.823Z,57.64
2022-10-05T14:07:38.121Z,58.17
2022-10-05T14:10:18.844Z,56.81
2022-10-05T14:12:56.203Z,51.82
2022-10-05T14:15:37.309Z,55.11
2022-10-05T14:18:27.107Z,56.90
2022-10-05T14:21:18.755Z,56.84
2022-10-05T14:23:48.031Z,57.52
2022-10-05T14:26:31.866Z,57.42
2022-10-05T14:29:05.072Z,56.68
2022-10-05T14:31:38.057Z,56.22
2022-10-05T14:34:33.128Z,57.00
2022-10-05T14:37:10.126Z,55.06
2022-10-05T14:39:43.701Z,58.96
2022-10-05T14:42:18.241Z,59.47
2022-10-05T14:45:00.587Z,61.09
2022-10-05T14:47:34.388Z,57.21
2022-10-05T14:50:17.806Z,57.79
2022-10-05T14:52:59.755Z,58.90
2022-10-05T14:55:40.140Z,55.95
2022-10-05T14:58:28.767Z,59.14
2022-10-05T15:01:05.152Z,61.33
2022-10-05T15:03:47.777Z,63.57
2022-10-05T15:06:23.036Z,63.94
2022-10-05T15:09:17.774Z,66.98
2022-10-05T15:11:51.753Z,66.66
2022-10-05T15:14:26.440Z,68.59
2022-10-05T15:17:01.876Z,69.22
2022-10-05T15:19:40.965Z,69.57
2022-10-05T15:22:20.794Z,69.47
2022-10-05T15:24:59.787Z,69.81
2022-10-05T15:27:33.676Z,69.65
2022-10-05T15:30:09.619Z,71.44
2022-10-05T15:33:01.105Z,72.75
2022-10-05T15:35:55.675Z,73.30
2022-10-05T15:38:26.622Z,73.49
2022-10-05T15:41:11.835Z,74.40
2022-10-05T15:43:50.406Z,76.40
2022-10-05T15:46:24.401Z,76.63
2022-10-05T15:49:02.353Z,76.97
2022-10-05T15:51:43.565Z,76.91
2022-10-05T15:54:38.831Z,77.45
2022-10-05T15:57:12.737Z,78.38
2022-10-05T15:59:47.362Z,79.02
2022-10-05T16:02:20.737Z,78.94
2022-10-05T16:04:59.981Z,79.97
2022-10-05T16:07:55.202Z,79.87
2022-10-05T16:10:25.900Z,80.29
2022-10-05T16:13:06.523Z,80.22
2022-10-05T16:15:38.701Z,81.52
2022-10-05T16:18:44.183Z,81.95
2022-10-05T16:21:22.966Z,82.25
2022-10-05T16:24:06.310Z,83.23
2022-10-05T16:26:47.819Z,83.56
2022-10-05T16:29:24.038Z,84.15
2022-10-05T16:31:57.150Z,84.60
2022-10-05T16:34:37.755Z,84.59
2022-10-05T16:37:11.703Z,84.81
2022-10-05T16:39:55.850Z,85.69
2022-10-05T16:42:46.518Z,85.63
2022-10-05T16:45:29.071Z,85.88
2022-10-05T16:48:05.207Z,86.01
2022-10-05T16:50:40.641Z,86.05
2022-10-05T16:53:18.165Z,85.86
2022-10-05T16:55:50.603Z,86.04
2022-10-05T16:58:25.595Z,86.49
2022-10-05T17:01:09.260Z,85.64
2022-10-05T17:03:58.008Z,86.58
2022-10-05T17:06:55.785Z,85.57
2022-10-05T17:09:48.693Z,86.45
2022-10-05T17:12:29.462Z,87.62
2022-10-05T17:15:10.762Z,87.49
2022-10-05T17:17:50.179Z,88.15
2022-10-05T17:20:42.950Z,88.82
2022-10-05T17:23:29.313Z,89.87
2022-10-05T17:26:10.571Z,89.70
2022-10-05T17:28:41.068Z,90.04
2022-10-05T17:31:19.092Z,90.06
2022-10-05T17:34:25.037Z,90.33
2022-10-05T17:36:59.781Z,89.99
2022-10-05T17:39:50.206Z,90.63
2022-10-05T17:42:57.584Z,89.42
2022-10-05T17:45:53.451Z,90.93
2022-10-05T17:49:06.823Z,90.91
2022-10-05T17:52:15.873Z,90.30
2022-10-05T17:55:27.357Z,89.35
2022-10-05T17:58:24.725Z,90.49
2022-10-05T18:01:07.138Z,91.27
2022-10-05T18:03:48.093Z,90.43
2022-10-05T18:06:41.841Z,90.64
2022-10-05T18:09:45.211Z,91.17
2022-10-05T18:12:41.266Z,90.72
2022-10-05T18:15:45.071Z,91.83
2022-10-05T18:18:54.664Z,91.67
2022-10-05T18:21:32.550Z,93.85
2022-10-05T18:24:18.243Z,93.08
2022-10-05T18:26:54.471Z,90.81
2022-10-05T18:29:53.985Z,92.96
2022-10-05T18:32:31.247Z,95.05
2022-10-05T18:35:04.093Z,93.29
2022-10-05T18:37:41.810Z,94.14
2022-10-05T18:40:30.177Z,94.00
2022-10-05T18:43:06.490Z,93.37
2022-10-05T18:45:43.098Z,92.75
2022-10-05T18:48:21.535Z,90.66
2022-10-05T18:50:53.662Z,92.22
2022-10-05T18:53:31.283Z,93.16
2022-10-05T18:56:05.022Z,94.51
2022-10-05T18:58:40.947Z,95.23
2022-10-05T19:01:48.435Z,95.82
2022-10-05T19:04:27.221Z,93.99
2022-10-05T19:07:05.937Z,96.29
2022-10-05T19:09:48.216Z,96.12
2022-10-05T19:12:25.746Z,96.72
2022-10-05T19:15:00.217Z,95.16
2022-10-05T19:17:42.839Z,95.93
2022-10-05T19:20:20.560Z,94.38
2022-10-05T19:23:12.155Z,95.26
2022-10-05T19:25:47.625Z,94.82
2022-10-05T19:28:26.005Z,96.41
2022-10-05T19:31:15.408Z,95.52
2022-10-05T19:33:55.736Z,96.62
2022-10-05T19:36:38.017Z,96.17
2022-10-05T19:39:11.966Z,97.96
2022-10-05T19:42:00.126Z,97.18
2022-10-05T19:44:42.392Z,98.21
2022-10-05T19:47:19.495Z,97.32
2022-10-05T19:49:59.298Z,96.12
2022-10-05T19:52:39.643Z,96.72
2022-10-05T19:55:15.503Z,97.43
2022-10-05T19:57:52.417Z,96.93
2022-10-05T20:00:26.759Z,97.82
2022-10-05T20:03:11.969Z,97.63
2022-10-05T20:05:41.379Z,96.15
2022-10-05T20:08:18.309Z,95.74
2022-10-05T20:10:47.954Z,96.02
2022-10-05T20:13:23.165Z,96.00
2022-10-05T20:16:39.912Z,95.41
2022-10-05T20:19:45.595Z,97.72
2022-10-05T20:22:34.346Z,96.03
2022-10-05T20:25:07.586Z,94.41
2022-10-05T20:27:47.400Z,93.37
2022-10-05T20:30:19.051Z,95.23
2022-10-05T20:32:49.946Z,94.77
2022-10-05T20:35:21.882Z,96.55
2022-10-05T20:37:51.488Z,97.02
2022-10-05T20:40:22.517Z,94.94
2022-10-05T20:42:51.732Z,96.73
2022-10-05T20:45:21.027Z,96.05
2022-10-05T20:47:51.476Z,96.67
2022-10-05T20:50:22.283Z,98.45
2022-10-05T20:52:51.515Z,96.96
2022-10-05T20:55:22.088Z,95.35
2022-10-05T20:57:51.520Z,93.53
2022-10-05T21:00:20.807Z,92.22
2022-10-05T21:02:49.722Z,93.98
2022-10-05T21:05:18.982Z,94.91
2022-10-05T21:07:48.366Z,96.32
2022-10-05T21:10:17.571Z,94.77
2022-10-05T21:12:48.315Z,95.18
2022-10-05T21:15:17.650Z,97.26
2022-10-05T21:17:49.292Z,97.52
2022-10-05T21:20:19.096Z,96.26
2022-10-05T21:22:48.250Z,94.85
2022-10-05T21:25:17.487Z,93.61
2022-10-05T21:27:48.740Z,96.64
2022-10-05T21:30:18.127Z,93.70
2022-10-05T21:32:47.622Z,96.10
2022-10-05T21:35:17.445Z,94.69
2022-10-05T21:37:46.593Z,97.07
2022-10-05T21:40:16.227Z,96.00
2022-10-05T21:42:45.412Z,94.15
2022-10-05T21:45:16.255Z,94.99
2022-10-05T21:47:46.489Z,95.84
2022-10-05T21:50:15.762Z,95.01
2022-10-05T21:52:45.245Z,93.19
2022-10-05T21:55:14.467Z,95.20
2022-10-05T21:57:43.890Z,94.48
2022-10-05T22:00:14.190Z,95.16
2022-10-05T22:02:45.006Z,96.53
2022-10-05T22:05:14.180Z,95.99
2022-10-05T22:07:43.656Z,95.36
2022-10-05T22:10:12.985Z,93.59
2022-10-05T22:12:42.723Z,92.84
2022-10-05T22:15:12.153Z,94.29
2022-10-05T22:17:46.319Z,95.17
2022-10-05T22:20:17.149Z,93.27
2022-10-05T22:22:46.283Z,94.75
2022-10-05T22:25:16.102Z,94.79
2022-10-05T22:27:45.881Z,94.31
2022-10-05T22:30:15.940Z,93.09
2022-10-05T22:32:46.916Z,94.33
2022-10-05T22:35:16.682Z,94.89
2022-10-05T22:37:46.060Z,93.58
2022-10-05T22:40:15.480Z,94.04
2022-10-05T22:42:44.689Z,93.22
2022-10-05T22:45:14.224Z,94.88
2022-10-05T22:47:45.119Z,93.69
2022-10-05T22:50:14.526Z,92.91
2022-10-05T22:52:43.814Z,93.22
2022-10-05T22:55:13.230Z,92.06
2022-10-05T22:57:43.163Z,94.23
2022-10-05T23:00:13.500Z,94.59
2022-10-05T23:02:45.816Z,92.35
2022-10-05T23:05:17.152Z,89.96
2022-10-05T23:07:48.100Z,88.82
2022-10-05T23:10:19.509Z,90.63
2022-10-05T23:13:00.523Z,90.30
2022-10-05T23:15:30.275Z,90.83
2022-10-05T23:18:01.286Z,91.74
2022-10-05T23:20:30.727Z,88.79
2022-10-05T23:23:01.250Z,90.48
2022-10-05T23:25:30.453Z,90.78
2022-10-05T23:27:59.843Z,90.15
2022-10-05T23:30:29.481Z,88.72
2022-10-05T23:33:00.103Z,90.09
2022-10-05T23:35:29.422Z,87.90
2022-10-05T23:37:58.676Z,89.14
2022-10-05T23:40:28.059Z,88.86
2022-10-05T23:42:57.276Z,86.82
2022-10-05T23:45:26.524Z,90.39
2022-10-05T23:47:55.735Z,89.40
2022-10-05T23:50:27.583Z,90.45
2022-10-05T23:52:56.860Z,92.03
2022-10-05T23:55:25.874Z,88.56
2022-10-05T23:57:54.923Z,91.72
